Detall de PIREP

Printer-friendly versionPDF version

[2008/10/26 14:01:00]
Flight IATA:CT0001
Pilot Number:041
Company ICAO:CAT
Aircraft Type:F50/A
PAX:36
Departing Airport: LEIB
Destination Airport: LERS
Alternate Airport:LEBL
Online: VATSIM
Route:GATOS1F A293 MARTA A293 EBROX3Q


Flight Level:FL080
No Slew and time accel
No pause
Crash detect
Detect pilot in Cockpit between each 30 and 45 minutes
14:01 Zero fuel Weight: 39244 Lbs, Fuel Weight: 4424 Lbs
14:01 VATSIM:LEIB 261330Z 03012KT 9999 FEW020 SCT030 22/17 Q1023 NOSIG
14:01 VATSIM:LERS 261330Z 22006KT 170V250 9999 FEW030 22/09 Q1024
14:02 VOICE CATALONIAN
14:03 Parking Brakes off
14:10 Take-off
14:10 Take off Weight: 43591 Lbs
14:10 Wind: 029º @ 012 Knots Heading: 061º
14:10 POS N38º 52´ 22´´ E001º 22´ 24´´
14:10 Flaps:1 at 153 Knots
14:10 Gear Up: 154 Knots
14:10 Flaps:0 at 166 Knots
14:22 TOC
14:22 Fuel Weight: 3983 Lb
14:22 TOD
14:22 Fuel Weight: 396
2 Lb
14:23 TOC
14:23 Fuel Weight: 3956 Lb
14:25 Wind:047º@011 Knots Heading: 003º Ground Speed: 242 Knots Altitude 8284 ft
14:40 Wind:207º@006 Knots Heading: 353º Ground Speed: 255 Knots Altitude 8313 ft
14:44 TOD
14:44 Fuel Weight: 3388 Lb
14:55 Wind:207º@006 Knots Heading: 094º Ground Speed: 248 Knots Altitude 5997 ft
15:01 Flaps:1 at 211 Knots
15:01 Gear Down: 201 Knots
15:01 Flaps:2 at 179 Knots
15:02 Flaps:3 at 150 Knots
15:02 Flaps:4 at 119 Knots
15:03 Flaps:5 at 121 Knots
15:04 TouchDown:Rate -96 ft/min Speed: 104 Knots
15:05 VATSIM:LERS 261430Z 19006KT 160V250 CAVOK 22/09 Q1024
15:05 Land
15:05 Wind:190º@006 Knots
15:05 Heading: 248º
15:05 Flight Duration: 00:55
15:05 Landing Weight: 42186 Lbs
15:05 POS N41º 08´ 50´´ E001º 10´ 01´´
15:08 Parking brakes on
15:08 Block to Block Duration: 01:05
15:08 Final Fuel: 2916 Lbls
15:08 Spent Fuel: 1507
Lbls
15:08 Flight Length: 216 NM
15:08 TOD Land Length: 77 NM

Exportar CSV

Powered by Drupal - Modified by Danger4k